sensor_id;sensor_type;location;lat;lon;timestamp;temperature;humidity
19522;DHT22;9905;52.126;5.596;2023-06-05T00:01:55;13.10;99.90
19522;DHT22;9905;52.126;5.596;2023-06-05T00:04:21;13.10;99.90
19522;DHT22;9905;52.126;5.596;2023-06-05T00:06:49;13.00;99.90
19522;DHT22;9905;52.126;5.596;2023-06-05T00:09:17;13.00;99.90
19522;DHT22;9905;52.126;5.596;2023-06-05T00:11:43;13.00;99.90
19522;DHT22;9905;52.126;5.596;2023-06-05T00:14:10;12.90;99.90
19522;DHT22;9905;52.126;5.596;2023-06-05T00:16:37;12.90;99.90
19522;DHT22;9905;52.126;5.596;2023-06-05T00:19:05;12.90;99.90
19522;DHT22;9905;52.126;5.596;2023-06-05T00:21:32;12.90;99.90
19522;DHT22;9905;52.126;5.596;2023-06-05T00:23:59;12.90;99.90
19522;DHT22;9905;52.126;5.596;2023-06-05T00:26:25;12.90;99.90
19522;DHT22;9905;52.126;5.596;2023-06-05T00:28:52;12.90;99.90
19522;DHT22;9905;52.126;5.596;2023-06-05T00:31:19;12.80;99.90
19522;DHT22;9905;52.126;5.596;2023-06-05T00:33:47;12.80;99.90
19522;DHT22;9905;52.126;5.596;2023-06-05T00:36:15;12.70;99.90
19522;DHT22;9905;52.126;5.596;2023-06-05T00:38:43;12.70;99.90
19522;DHT22;9905;52.126;5.596;2023-06-05T00:41:10;12.70;99.90
19522;DHT22;9905;52.126;5.596;2023-06-05T00:43:36;12.60;99.90
19522;DHT22;9905;52.126;5.596;2023-06-05T00:46:04;12.60;99.90
19522;DHT22;9905;52.126;5.596;2023-06-05T00:48:32;12.60;99.90
19522;DHT22;9905;52.126;5.596;2023-06-05T00:50:59;12.50;99.90
19522;DHT22;9905;52.126;5.596;2023-06-05T00:53:30;12.50;99.90
19522;DHT22;9905;52.126;5.596;2023-06-05T00:55:58;12.40;99.90
19522;DHT22;9905;52.126;5.596;2023-06-05T00:58:28;12.40;99.90
19522;DHT22;9905;52.126;5.596;2023-06-05T01:00:56;12.30;99.90
19522;DHT22;9905;52.126;5.596;2023-06-05T01:03:24;12.30;99.90
19522;DHT22;9905;52.126;5.596;2023-06-05T01:05:54;12.30;99.90
19522;DHT22;9905;52.126;5.596;2023-06-05T01:08:30;12.30;99.90
19522;DHT22;9905;52.126;5.596;2023-06-05T01:11:07;12.30;99.90
19522;DHT22;9905;52.126;5.596;2023-06-05T01:13:39;12.20;99.90
19522;DHT22;9905;52.126;5.596;2023-06-05T01:16:09;12.30;99.90
19522;DHT22;9905;52.126;5.596;2023-06-05T01:18:36;12.20;99.90
19522;DHT22;9905;52.126;5.596;2023-06-05T01:21:10;12.20;99.90
19522;DHT22;9905;52.126;5.596;2023-06-05T01:23:40;12.20;99.90
19522;DHT22;9905;52.126;5.596;2023-06-05T01:26:12;12.20;99.90
19522;DHT22;9905;52.126;5.596;2023-06-05T01:28:45;12.10;99.90
19522;DHT22;9905;52.126;5.596;2023-06-05T01:31:14;12.20;99.90
19522;DHT22;9905;52.126;5.596;2023-06-05T01:33:50;12.10;99.90
19522;DHT22;9905;52.126;5.596;2023-06-05T01:36:22;12.10;99.90
19522;DHT22;9905;52.126;5.596;2023-06-05T01:38:51;12.00;99.90
19522;DHT22;9905;52.126;5.596;2023-06-05T01:41:21;12.00;99.90
19522;DHT22;9905;52.126;5.596;2023-06-05T01:43:48;12.00;99.90
19522;DHT22;9905;52.126;5.596;2023-06-05T01:46:18;12.00;99.90
19522;DHT22;9905;52.126;5.596;2023-06-05T01:48:45;11.90;99.90
19522;DHT22;9905;52.126;5.596;2023-06-05T01:51:12;11.90;99.90
19522;DHT22;9905;52.126;5.596;2023-06-05T01:53:38;11.90;99.90
19522;DHT22;9905;52.126;5.596;2023-06-05T01:56:07;11.80;99.90
19522;DHT22;9905;52.126;5.596;2023-06-05T01:58:34;11.80;99.90
19522;DHT22;9905;52.126;5.596;2023-06-05T02:01:02;11.80;99.90
19522;DHT22;9905;52.126;5.596;2023-06-05T02:03:30;11.70;99.90
19522;DHT22;9905;52.126;5.596;2023-06-05T02:05:57;11.70;99.90
19522;DHT22;9905;52.126;5.596;2023-06-05T02:08:24;11.70;99.90
19522;DHT22;9905;52.126;5.596;2023-06-05T02:10:51;11.70;99.90
19522;DHT22;9905;52.126;5.596;2023-06-05T02:13:19;11.60;99.90
19522;DHT22;9905;52.126;5.596;2023-06-05T02:15:48;11.60;99.90
19522;DHT22;9905;52.126;5.596;2023-06-05T02:18:15;11.60;99.90
19522;DHT22;9905;52.126;5.596;2023-06-05T02:20:42;11.60;99.90
19522;DHT22;9905;52.126;5.596;2023-06-05T02:23:09;11.60;99.90
19522;DHT22;9905;52.126;5.596;2023-06-05T02:25:36;11.50;99.90
19522;DHT22;9905;52.126;5.596;2023-06-05T02:28:03;11.50;99.90
19522;DHT22;9905;52.126;5.596;2023-06-05T02:30:31;11.50;99.90
19522;DHT22;9905;52.126;5.596;2023-06-05T02:32:58;11.40;99.90
19522;DHT22;9905;52.126;5.596;2023-06-05T02:35:26;11.40;99.90
19522;DHT22;9905;52.126;5.596;2023-06-05T02:37:53;11.40;99.90
19522;DHT22;9905;52.126;5.596;2023-06-05T02:40:21;11.40;99.90
19522;DHT22;9905;52.126;5.596;2023-06-05T02:42:48;11.40;99.90
19522;DHT22;9905;52.126;5.596;2023-06-05T02:45:15;11.40;99.90
19522;DHT22;9905;52.126;5.596;2023-06-05T02:47:43;11.40;99.90
19522;DHT22;9905;52.126;5.596;2023-06-05T02:50:10;11.30;99.90
19522;DHT22;9905;52.126;5.596;2023-06-05T02:52:37;11.40;99.90
19522;DHT22;9905;52.126;5.596;2023-06-05T02:55:05;11.30;99.90
19522;DHT22;9905;52.126;5.596;2023-06-05T02:57:33;11.30;99.90
19522;DHT22;9905;52.126;5.596;2023-06-05T03:00:00;11.30;99.90
19522;DHT22;9905;52.126;5.596;2023-06-05T03:02:33;11.30;99.90
19522;DHT22;9905;52.126;5.596;2023-06-05T03:05:03;11.20;99.90
19522;DHT22;9905;52.126;5.596;2023-06-05T03:07:30;11.20;99.90
19522;DHT22;9905;52.126;5.596;2023-06-05T03:09:59;11.20;99.90
19522;DHT22;9905;52.126;5.596;2023-06-05T03:12:26;11.10;99.90
19522;DHT22;9905;52.126;5.596;2023-06-05T03:14:53;11.10;99.90
19522;DHT22;9905;52.126;5.596;2023-06-05T03:17:20;11.10;99.90
19522;DHT22;9905;52.126;5.596;2023-06-05T03:19:48;11.00;99.90
19522;DHT22;9905;52.126;5.596;2023-06-05T03:22:16;11.10;99.90
19522;DHT22;9905;52.126;5.596;2023-06-05T03:24:43;11.10;99.90
19522;DHT22;9905;52.126;5.596;2023-06-05T03:27:10;11.10;99.90
19522;DHT22;9905;52.126;5.596;2023-06-05T03:29:37;11.10;99.90
19522;DHT22;9905;52.126;5.596;2023-06-05T03:32:03;11.10;99.90
19522;DHT22;9905;52.126;5.596;2023-06-05T03:34:31;11.10;99.90
19522;DHT22;9905;52.126;5.596;2023-06-05T03:36:58;11.00;99.90
19522;DHT22;9905;52.126;5.596;2023-06-05T03:39:26;11.00;99.90
19522;DHT22;9905;52.126;5.596;2023-06-05T03:41:52;11.00;99.90
19522;DHT22;9905;52.126;5.596;2023-06-05T03:44:19;11.00;99.90
19522;DHT22;9905;52.126;5.596;2023-06-05T03:46:48;10.90;99.90
19522;DHT22;9905;52.126;5.596;2023-06-05T03:49:14;10.90;99.90
19522;DHT22;9905;52.126;5.596;2023-06-05T03:51:42;10.90;99.90
19522;DHT22;9905;52.126;5.596;2023-06-05T03:54:10;10.90;99.90
19522;DHT22;9905;52.126;5.596;2023-06-05T03:56:39;10.90;99.90
19522;DHT22;9905;52.126;5.596;2023-06-05T03:59:08;10.90;99.90
19522;DHT22;9905;52.126;5.596;2023-06-05T04:01:44;10.80;99.90
19522;DHT22;9905;52.126;5.596;2023-06-05T04:04:11;10.80;99.90
19522;DHT22;9905;52.126;5.596;2023-06-05T04:06:37;10.80;99.90
19522;DHT22;9905;52.126;5.596;2023-06-05T04:09:05;10.80;99.90
19522;DHT22;9905;52.126;5.596;2023-06-05T04:11:36;10.80;99.90
19522;DHT22;9905;52.126;5.596;2023-06-05T04:14:05;10.80;99.90
19522;DHT22;9905;52.126;5.596;2023-06-05T04:16:31;10.90;99.90
19522;DHT22;9905;52.126;5.596;2023-06-05T04:18:59;10.90;99.90
19522;DHT22;9905;52.126;5.596;2023-06-05T04:21:26;10.90;99.90
19522;DHT22;9905;52.126;5.596;2023-06-05T04:23:53;10.90;99.90
19522;DHT22;9905;52.126;5.596;2023-06-05T04:26:19;10.90;99.90
19522;DHT22;9905;52.126;5.596;2023-06-05T04:28:47;10.90;99.90
19522;DHT22;9905;52.126;5.596;2023-06-05T04:31:17;10.90;99.90
19522;DHT22;9905;52.126;5.596;2023-06-05T04:33:44;11.00;99.90
19522;DHT22;9905;52.126;5.596;2023-06-05T04:36:11;11.00;99.90
19522;DHT22;9905;52.126;5.596;2023-06-05T04:38:38;11.00;99.90
19522;DHT22;9905;52.126;5.596;2023-06-05T04:41:05;11.00;99.90
19522;DHT22;9905;52.126;5.596;2023-06-05T04:43:32;11.00;99.90
19522;DHT22;9905;52.126;5.596;2023-06-05T04:45:59;11.10;99.90
19522;DHT22;9905;52.126;5.596;2023-06-05T04:48:28;11.10;99.90
19522;DHT22;9905;52.126;5.596;2023-06-05T04:50:55;11.10;99.90
19522;DHT22;9905;52.126;5.596;2023-06-05T04:53:23;11.10;99.90
19522;DHT22;9905;52.126;5.596;2023-06-05T04:55:50;11.10;99.90
19522;DHT22;9905;52.126;5.596;2023-06-05T04:58:17;11.10;99.90
19522;DHT22;9905;52.126;5.596;2023-06-05T05:00:45;11.20;99.90
19522;DHT22;9905;52.126;5.596;2023-06-05T05:03:13;11.10;99.90
19522;DHT22;9905;52.126;5.596;2023-06-05T05:05:41;11.10;99.90
19522;DHT22;9905;52.126;5.596;2023-06-05T05:08:07;11.20;99.90
19522;DHT22;9905;52.126;5.596;2023-06-05T05:10:34;11.30;99.90
19522;DHT22;9905;52.126;5.596;2023-06-05T05:13:01;11.30;99.90
19522;DHT22;9905;52.126;5.596;2023-06-05T05:15:28;11.40;99.90
19522;DHT22;9905;52.126;5.596;2023-06-05T05:17:55;11.40;99.90
19522;DHT22;9905;52.126;5.596;2023-06-05T05:20:22;11.40;99.90
19522;DHT22;9905;52.126;5.596;2023-06-05T05:22:50;11.50;99.90
19522;DHT22;9905;52.126;5.596;2023-06-05T05:25:17;11.60;99.90
19522;DHT22;9905;52.126;5.596;2023-06-05T05:27:44;11.60;99.90
19522;DHT22;9905;52.126;5.596;2023-06-05T05:30:12;11.60;99.90
19522;DHT22;9905;52.126;5.596;2023-06-05T05:32:38;11.70;99.90
19522;DHT22;9905;52.126;5.596;2023-06-05T05:35:06;11.70;99.90
19522;DHT22;9905;52.126;5.596;2023-06-05T05:37:33;11.70;99.90
19522;DHT22;9905;52.126;5.596;2023-06-05T05:40:01;11.80;99.90
19522;DHT22;9905;52.126;5.596;2023-06-05T05:42:31;11.80;99.90
19522;DHT22;9905;52.126;5.596;2023-06-05T05:44:58;11.90;99.90
19522;DHT22;9905;52.126;5.596;2023-06-05T05:47:25;12.00;99.90
19522;DHT22;9905;52.126;5.596;2023-06-05T05:49:52;12.00;99.90
19522;DHT22;9905;52.126;5.596;2023-06-05T05:52:18;12.10;99.90
19522;DHT22;9905;52.126;5.596;2023-06-05T05:54:45;12.10;99.90
19522;DHT22;9905;52.126;5.596;2023-06-05T05:57:14;12.20;99.90
19522;DHT22;9905;52.126;5.596;2023-06-05T05:59:41;12.20;99.90
19522;DHT22;9905;52.126;5.596;2023-06-05T06:02:09;12.30;99.90
19522;DHT22;9905;52.126;5.596;2023-06-05T06:04:37;12.30;99.90
19522;DHT22;9905;52.126;5.596;2023-06-05T06:07:05;12.40;99.90
19522;DHT22;9905;52.126;5.596;2023-06-05T06:09:32;12.40;99.90
19522;DHT22;9905;52.126;5.596;2023-06-05T06:11:58;12.50;99.90
19522;DHT22;9905;52.126;5.596;2023-06-05T06:14:32;12.50;99.90
19522;DHT22;9905;52.126;5.596;2023-06-05T06:16:59;12.50;99.90
19522;DHT22;9905;52.126;5.596;2023-06-05T06:19:26;12.60;99.90
19522;DHT22;9905;52.126;5.596;2023-06-05T06:21:53;12.70;99.90
19522;DHT22;9905;52.126;5.596;2023-06-05T06:24:20;12.80;99.90
19522;DHT22;9905;52.126;5.596;2023-06-05T06:26:48;12.80;99.90
19522;DHT22;9905;52.126;5.596;2023-06-05T06:29:17;12.90;99.90
19522;DHT22;9905;52.126;5.596;2023-06-05T06:31:45;13.00;99.90
19522;DHT22;9905;52.126;5.596;2023-06-05T06:34:12;13.10;99.90
19522;DHT22;9905;52.126;5.596;2023-06-05T06:36:39;13.20;99.90
19522;DHT22;9905;52.126;5.596;2023-06-05T06:39:06;13.30;99.90
19522;DHT22;9905;52.126;5.596;2023-06-05T06:41:34;13.30;99.90
19522;DHT22;9905;52.126;5.596;2023-06-05T06:44:01;13.30;99.90
19522;DHT22;9905;52.126;5.596;2023-06-05T06:46:29;13.40;99.90
19522;DHT22;9905;52.126;5.596;2023-06-05T06:48:57;13.50;99.90
19522;DHT22;9905;52.126;5.596;2023-06-05T06:51:23;13.50;99.90
19522;DHT22;9905;52.126;5.596;2023-06-05T06:53:50;13.60;99.90
19522;DHT22;9905;52.126;5.596;2023-06-05T06:56:17;13.70;99.90
19522;DHT22;9905;52.126;5.596;2023-06-05T06:58:44;13.80;99.90
19522;DHT22;9905;52.126;5.596;2023-06-05T07:01:13;13.90;99.90
19522;DHT22;9905;52.126;5.596;2023-06-05T07:03:40;14.00;99.90
19522;DHT22;9905;52.126;5.596;2023-06-05T07:06:10;14.10;99.90
19522;DHT22;9905;52.126;5.596;2023-06-05T07:08:37;14.20;99.90
19522;DHT22;9905;52.126;5.596;2023-06-05T07:11:04;14.30;99.90
19522;DHT22;9905;52.126;5.596;2023-06-05T07:13:31;14.40;99.90
19522;DHT22;9905;52.126;5.596;2023-06-05T07:15:57;14.50;99.90
19522;DHT22;9905;52.126;5.596;2023-06-05T07:18:24;14.60;99.90
19522;DHT22;9905;52.126;5.596;2023-06-05T07:20:51;14.70;99.90
19522;DHT22;9905;52.126;5.596;2023-06-05T07:23:19;14.90;99.90
19522;DHT22;9905;52.126;5.596;2023-06-05T07:25:47;15.10;99.90
19522;DHT22;9905;52.126;5.596;2023-06-05T07:28:14;15.20;99.90
19522;DHT22;9905;52.126;5.596;2023-06-05T07:30:41;15.30;99.90
19522;DHT22;9905;52.126;5.596;2023-06-05T07:33:09;15.50;99.90
19522;DHT22;9905;52.126;5.596;2023-06-05T07:35:36;15.60;99.90
19522;DHT22;9905;52.126;5.596;2023-06-05T07:38:03;15.70;99.90
19522;DHT22;9905;52.126;5.596;2023-06-05T07:40:31;15.90;99.90
19522;DHT22;9905;52.126;5.596;2023-06-05T07:42:58;15.90;99.90
19522;DHT22;9905;52.126;5.596;2023-06-05T07:45:25;16.10;99.90
19522;DHT22;9905;52.126;5.596;2023-06-05T07:47:52;16.10;99.90
19522;DHT22;9905;52.126;5.596;2023-06-05T07:50:19;16.30;99.90
19522;DHT22;9905;52.126;5.596;2023-06-05T07:52:45;16.40;99.90
19522;DHT22;9905;52.126;5.596;2023-06-05T07:55:12;16.70;99.90
19522;DHT22;9905;52.126;5.596;2023-06-05T07:57:40;16.80;99.90
19522;DHT22;9905;52.126;5.596;2023-06-05T08:00:08;17.00;99.90
19522;DHT22;9905;52.126;5.596;2023-06-05T08:02:36;17.20;99.90
19522;DHT22;9905;52.126;5.596;2023-06-05T08:05:04;17.30;99.90
19522;DHT22;9905;52.126;5.596;2023-06-05T08:07:31;17.30;99.90
19522;DHT22;9905;52.126;5.596;2023-06-05T08:09:58;17.40;99.90
19522;DHT22;9905;52.126;5.596;2023-06-05T08:12:25;17.60;99.90
19522;DHT22;9905;52.126;5.596;2023-06-05T08:14:53;17.60;99.90
19522;DHT22;9905;52.126;5.596;2023-06-05T08:17:20;17.70;99.90
19522;DHT22;9905;52.126;5.596;2023-06-05T08:19:47;18.00;99.90
19522;DHT22;9905;52.126;5.596;2023-06-05T08:22:13;18.20;99.90
19522;DHT22;9905;52.126;5.596;2023-06-05T08:24:40;18.30;99.90
19522;DHT22;9905;52.126;5.596;2023-06-05T08:27:07;18.20;99.90
19522;DHT22;9905;52.126;5.596;2023-06-05T08:29:33;18.20;99.90
19522;DHT22;9905;52.126;5.596;2023-06-05T08:32:03;18.30;99.90
19522;DHT22;9905;52.126;5.596;2023-06-05T08:34:30;18.40;99.90
19522;DHT22;9905;52.126;5.596;2023-06-05T08:36:58;18.50;99.90
19522;DHT22;9905;52.126;5.596;2023-06-05T08:39:25;18.50;99.90
19522;DHT22;9905;52.126;5.596;2023-06-05T08:41:55;18.70;99.90
19522;DHT22;9905;52.126;5.596;2023-06-05T08:44:26;18.90;99.90
19522;DHT22;9905;52.126;5.596;2023-06-05T08:46:59;19.00;99.90
19522;DHT22;9905;52.126;5.596;2023-06-05T08:49:28;19.20;99.90
19522;DHT22;9905;52.126;5.596;2023-06-05T08:51:58;19.40;99.90
19522;DHT22;9905;52.126;5.596;2023-06-05T08:54:27;19.60;99.90
19522;DHT22;9905;52.126;5.596;2023-06-05T08:56:54;19.60;99.90
19522;DHT22;9905;52.126;5.596;2023-06-05T08:59:21;19.70;99.90
19522;DHT22;9905;52.126;5.596;2023-06-05T09:01:50;19.90;99.90
19522;DHT22;9905;52.126;5.596;2023-06-05T09:04:17;20.20;99.90
19522;DHT22;9905;52.126;5.596;2023-06-05T09:06:46;20.10;99.90
19522;DHT22;9905;52.126;5.596;2023-06-05T09:09:14;20.30;99.90
19522;DHT22;9905;52.126;5.596;2023-06-05T09:11:41;20.50;99.90
19522;DHT22;9905;52.126;5.596;2023-06-05T09:14:08;20.60;99.90
19522;DHT22;9905;52.126;5.596;2023-06-05T09:16:37;20.80;99.90
19522;DHT22;9905;52.126;5.596;2023-06-05T09:19:05;20.90;99.90
19522;DHT22;9905;52.126;5.596;2023-06-05T09:21:32;21.00;99.90
19522;DHT22;9905;52.126;5.596;2023-06-05T09:24:14;21.00;99.90
19522;DHT22;9905;52.126;5.596;2023-06-05T09:26:56;21.20;99.90
19522;DHT22;9905;52.126;5.596;2023-06-05T09:29:24;21.20;99.90
19522;DHT22;9905;52.126;5.596;2023-06-05T09:31:53;21.30;99.90
19522;DHT22;9905;52.126;5.596;2023-06-05T09:34:24;21.40;99.90
19522;DHT22;9905;52.126;5.596;2023-06-05T09:36:51;21.40;99.90
19522;DHT22;9905;52.126;5.596;2023-06-05T09:39:22;21.60;99.90
19522;DHT22;9905;52.126;5.596;2023-06-05T09:41:50;21.80;99.90
19522;DHT22;9905;52.126;5.596;2023-06-05T09:44:18;21.90;99.90
19522;DHT22;9905;52.126;5.596;2023-06-05T09:46:56;21.90;99.90
19522;DHT22;9905;52.126;5.596;2023-06-05T09:49:25;22.10;99.90
19522;DHT22;9905;52.126;5.596;2023-06-05T09:51:52;22.30;99.90
19522;DHT22;9905;52.126;5.596;2023-06-05T09:54:21;22.50;99.90
19522;DHT22;9905;52.126;5.596;2023-06-05T09:56:49;22.40;99.90
19522;DHT22;9905;52.126;5.596;2023-06-05T09:59:19;22.60;99.90
19522;DHT22;9905;52.126;5.596;2023-06-05T10:01:50;22.50;99.90
19522;DHT22;9905;52.126;5.596;2023-06-05T10:04:20;22.50;99.90
19522;DHT22;9905;52.126;5.596;2023-06-05T10:06:49;22.50;99.90
19522;DHT22;9905;52.126;5.596;2023-06-05T10:09:17;22.70;99.90
19522;DHT22;9905;52.126;5.596;2023-06-05T10:11:48;22.70;99.90
19522;DHT22;9905;52.126;5.596;2023-06-05T10:14:15;22.80;99.90
19522;DHT22;9905;52.126;5.596;2023-06-05T10:16:42;23.00;99.90
19522;DHT22;9905;52.126;5.596;2023-06-05T10:19:11;23.10;99.90
19522;DHT22;9905;52.126;5.596;2023-06-05T10:21:38;23.40;99.90
19522;DHT22;9905;52.126;5.596;2023-06-05T10:24:06;23.50;99.90
19522;DHT22;9905;52.126;5.596;2023-06-05T10:27:02;23.50;99.90
19522;DHT22;9905;52.126;5.596;2023-06-05T10:29:51;23.50;99.90
19522;DHT22;9905;52.126;5.596;2023-06-05T10:32:33;23.70;99.90
19522;DHT22;9905;52.126;5.596;2023-06-05T10:35:08;24.00;99.90
19522;DHT22;9905;52.126;5.596;2023-06-05T10:37:47;24.10;99.90
19522;DHT22;9905;52.126;5.596;2023-06-05T10:40:20;23.90;99.90
19522;DHT22;9905;52.126;5.596;2023-06-05T10:42:49;24.10;99.90
19522;DHT22;9905;52.126;5.596;2023-06-05T10:45:29;24.00;99.90
19522;DHT22;9905;52.126;5.596;2023-06-05T10:47:56;24.00;99.90
19522;DHT22;9905;52.126;5.596;2023-06-05T10:50:25;24.10;99.90
19522;DHT22;9905;52.126;5.596;2023-06-05T10:52:54;24.00;99.90
19522;DHT22;9905;52.126;5.596;2023-06-05T10:55:23;24.10;99.90
19522;DHT22;9905;52.126;5.596;2023-06-05T10:58:05;24.30;99.90
19522;DHT22;9905;52.126;5.596;2023-06-05T11:00:33;24.60;99.90
19522;DHT22;9905;52.126;5.596;2023-06-05T11:03:00;24.70;99.90
19522;DHT22;9905;52.126;5.596;2023-06-05T11:05:27;24.60;99.90
19522;DHT22;9905;52.126;5.596;2023-06-05T11:08:14;24.60;99.90
19522;DHT22;9905;52.126;5.596;2023-06-05T11:11:01;24.90;99.90
19522;DHT22;9905;52.126;5.596;2023-06-05T11:13:54;25.10;99.90
19522;DHT22;9905;52.126;5.596;2023-06-05T11:16:31;25.20;99.90
19522;DHT22;9905;52.126;5.596;2023-06-05T11:19:35;25.30;99.90
19522;DHT22;9905;52.126;5.596;2023-06-05T11:22:07;25.50;99.90
19522;DHT22;9905;52.126;5.596;2023-06-05T11:24:34;25.60;99.90
19522;DHT22;9905;52.126;5.596;2023-06-05T11:27:02;25.80;99.90
19522;DHT22;9905;52.126;5.596;2023-06-05T11:29:30;26.00;99.90
19522;DHT22;9905;52.126;5.596;2023-06-05T11:31:58;26.20;99.90
19522;DHT22;9905;52.126;5.596;2023-06-05T11:34:25;26.20;99.90
19522;DHT22;9905;52.126;5.596;2023-06-05T11:36:53;26.10;99.90
19522;DHT22;9905;52.126;5.596;2023-06-05T11:39:20;26.20;99.90
19522;DHT22;9905;52.126;5.596;2023-06-05T11:41:51;26.20;99.90
19522;DHT22;9905;52.126;5.596;2023-06-05T11:44:31;26.00;99.90
19522;DHT22;9905;52.126;5.596;2023-06-05T11:46:58;26.20;99.90
19522;DHT22;9905;52.126;5.596;2023-06-05T11:49:27;26.40;99.90
19522;DHT22;9905;52.126;5.596;2023-06-05T11:51:55;26.60;99.90
19522;DHT22;9905;52.126;5.596;2023-06-05T11:54:26;26.70;99.90
19522;DHT22;9905;52.126;5.596;2023-06-05T11:57:02;26.70;99.90
19522;DHT22;9905;52.126;5.596;2023-06-05T11:59:37;26.90;99.90
19522;DHT22;9905;52.126;5.596;2023-06-05T12:02:05;26.80;99.90
19522;DHT22;9905;52.126;5.596;2023-06-05T12:04:32;26.70;99.90
19522;DHT22;9905;52.126;5.596;2023-06-05T12:06:59;27.00;99.90
19522;DHT22;9905;52.126;5.596;2023-06-05T12:09:28;26.80;99.90
19522;DHT22;9905;52.126;5.596;2023-06-05T12:12:05;26.80;99.90
19522;DHT22;9905;52.126;5.596;2023-06-05T12:14:33;27.00;99.90
19522;DHT22;9905;52.126;5.596;2023-06-05T12:17:08;27.10;99.90
19522;DHT22;9905;52.126;5.596;2023-06-05T12:19:36;27.30;99.90
19522;DHT22;9905;52.126;5.596;2023-06-05T12:22:04;27.40;99.90
19522;DHT22;9905;52.126;5.596;2023-06-05T12:24:31;27.60;99.90
19522;DHT22;9905;52.126;5.596;2023-06-05T12:27:00;27.60;99.90
19522;DHT22;9905;52.126;5.596;2023-06-05T12:29:30;27.40;99.90
19522;DHT22;9905;52.126;5.596;2023-06-05T12:31:58;27.30;99.90
19522;DHT22;9905;52.126;5.596;2023-06-05T12:34:43;26.90;99.90
19522;DHT22;9905;52.126;5.596;2023-06-05T12:37:20;26.60;99.90
19522;DHT22;9905;52.126;5.596;2023-06-05T12:39:47;26.80;99.90
19522;DHT22;9905;52.126;5.596;2023-06-05T12:42:14;27.20;99.90
19522;DHT22;9905;52.126;5.596;2023-06-05T12:44:40;27.20;99.90
19522;DHT22;9905;52.126;5.596;2023-06-05T12:47:08;27.50;99.90
19522;DHT22;9905;52.126;5.596;2023-06-05T12:49:35;27.50;99.90
19522;DHT22;9905;52.126;5.596;2023-06-05T12:52:05;27.60;99.90
19522;DHT22;9905;52.126;5.596;2023-06-05T12:54:32;27.40;99.90
19522;DHT22;9905;52.126;5.596;2023-06-05T12:56:59;27.60;99.90
19522;DHT22;9905;52.126;5.596;2023-06-05T12:59:26;27.30;99.90
19522;DHT22;9905;52.126;5.596;2023-06-05T13:01:52;27.10;99.90
19522;DHT22;9905;52.126;5.596;2023-06-05T13:04:19;27.20;99.90
19522;DHT22;9905;52.126;5.596;2023-06-05T13:06:46;27.30;99.90
19522;DHT22;9905;52.126;5.596;2023-06-05T13:09:15;27.40;99.90
19522;DHT22;9905;52.126;5.596;2023-06-05T13:11:42;27.40;99.90
19522;DHT22;9905;52.126;5.596;2023-06-05T13:14:08;27.70;99.90
19522;DHT22;9905;52.126;5.596;2023-06-05T13:16:35;27.90;99.90
19522;DHT22;9905;52.126;5.596;2023-06-05T13:19:02;28.10;99.90
19522;DHT22;9905;52.126;5.596;2023-06-05T13:21:28;28.20;99.90
19522;DHT22;9905;52.126;5.596;2023-06-05T13:23:55;28.00;99.90
19522;DHT22;9905;52.126;5.596;2023-06-05T13:26:23;27.90;99.90
19522;DHT22;9905;52.126;5.596;2023-06-05T13:28:50;27.60;99.90
19522;DHT22;9905;52.126;5.596;2023-06-05T13:31:17;27.40;99.90
19522;DHT22;9905;52.126;5.596;2023-06-05T13:33:44;27.60;99.90
19522;DHT22;9905;52.126;5.596;2023-06-05T13:36:11;27.70;99.90
19522;DHT22;9905;52.126;5.596;2023-06-05T13:38:37;27.50;99.90
19522;DHT22;9905;52.126;5.596;2023-06-05T13:41:04;27.40;99.90
19522;DHT22;9905;52.126;5.596;2023-06-05T13:43:32;27.80;99.90
19522;DHT22;9905;52.126;5.596;2023-06-05T13:46:00;28.20;99.90
19522;DHT22;9905;52.126;5.596;2023-06-05T13:48:27;28.40;99.90
19522;DHT22;9905;52.126;5.596;2023-06-05T13:50:53;28.20;99.90
19522;DHT22;9905;52.126;5.596;2023-06-05T13:53:21;28.00;99.90
19522;DHT22;9905;52.126;5.596;2023-06-05T13:55:48;27.80;99.90
19522;DHT22;9905;52.126;5.596;2023-06-05T13:58:15;27.60;99.90
19522;DHT22;9905;52.126;5.596;2023-06-05T14:00:43;27.70;99.90
19522;DHT22;9905;52.126;5.596;2023-06-05T14:03:10;27.70;99.90
19522;DHT22;9905;52.126;5.596;2023-06-05T14:05:37;27.60;99.90
19522;DHT22;9905;52.126;5.596;2023-06-05T14:08:04;27.50;99.90
19522;DHT22;9905;52.126;5.596;2023-06-05T14:10:32;27.50;99.90
19522;DHT22;9905;52.126;5.596;2023-06-05T14:13:02;27.70;99.90
19522;DHT22;9905;52.126;5.596;2023-06-05T14:15:30;28.00;99.90
19522;DHT22;9905;52.126;5.596;2023-06-05T14:18:01;28.20;99.90
19522;DHT22;9905;52.126;5.596;2023-06-05T14:20:28;28.40;99.90
19522;DHT22;9905;52.126;5.596;2023-06-05T14:22:56;28.60;99.90
19522;DHT22;9905;52.126;5.596;2023-06-05T14:25:23;28.50;99.90
19522;DHT22;9905;52.126;5.596;2023-06-05T14:27:53;28.30;99.90
19522;DHT22;9905;52.126;5.596;2023-06-05T14:30:20;28.10;99.90
19522;DHT22;9905;52.126;5.596;2023-06-05T14:32:47;28.10;99.90
19522;DHT22;9905;52.126;5.596;2023-06-05T14:35:15;28.40;99.90
19522;DHT22;9905;52.126;5.596;2023-06-05T14:37:42;28.50;99.90
19522;DHT22;9905;52.126;5.596;2023-06-05T14:40:09;28.50;99.90
19522;DHT22;9905;52.126;5.596;2023-06-05T14:42:36;28.30;99.90
19522;DHT22;9905;52.126;5.596;2023-06-05T14:45:04;28.10;99.90
19522;DHT22;9905;52.126;5.596;2023-06-05T14:47:30;28.30;99.90
19522;DHT22;9905;52.126;5.596;2023-06-05T14:49:58;28.30;99.90
19522;DHT22;9905;52.126;5.596;2023-06-05T14:52:26;28.60;99.90
19522;DHT22;9905;52.126;5.596;2023-06-05T14:54:53;28.50;99.90
19522;DHT22;9905;52.126;5.596;2023-06-05T14:57:19;28.60;99.90
19522;DHT22;9905;52.126;5.596;2023-06-05T14:59:46;28.60;99.90
19522;DHT22;9905;52.126;5.596;2023-06-05T15:02:13;28.80;99.90
19522;DHT22;9905;52.126;5.596;2023-06-05T15:04:39;28.80;99.90
19522;DHT22;9905;52.126;5.596;2023-06-05T15:07:07;28.90;99.90
19522;DHT22;9905;52.126;5.596;2023-06-05T15:09:35;28.90;99.90
19522;DHT22;9905;52.126;5.596;2023-06-05T15:12:01;28.70;99.90
19522;DHT22;9905;52.126;5.596;2023-06-05T15:14:28;28.60;99.90
19522;DHT22;9905;52.126;5.596;2023-06-05T15:16:55;28.30;99.90
19522;DHT22;9905;52.126;5.596;2023-06-05T15:19:22;27.80;99.90
19522;DHT22;9905;52.126;5.596;2023-06-05T15:21:49;27.30;99.90
19522;DHT22;9905;52.126;5.596;2023-06-05T15:24:15;27.20;99.90
19522;DHT22;9905;52.126;5.596;2023-06-05T15:26:44;27.20;99.90
19522;DHT22;9905;52.126;5.596;2023-06-05T15:29:10;27.30;99.90
19522;DHT22;9905;52.126;5.596;2023-06-05T15:31:37;27.40;99.90
19522;DHT22;9905;52.126;5.596;2023-06-05T15:34:04;27.70;99.90
19522;DHT22;9905;52.126;5.596;2023-06-05T15:36:31;27.90;99.90
19522;DHT22;9905;52.126;5.596;2023-06-05T15:38:57;27.90;99.90
19522;DHT22;9905;52.126;5.596;2023-06-05T15:41:24;27.80;99.90
19522;DHT22;9905;52.126;5.596;2023-06-05T15:43:53;27.80;99.90
19522;DHT22;9905;52.126;5.596;2023-06-05T15:46:20;27.80;99.90
19522;DHT22;9905;52.126;5.596;2023-06-05T15:48:47;28.20;99.90
19522;DHT22;9905;52.126;5.596;2023-06-05T15:51:14;28.10;99.90
19522;DHT22;9905;52.126;5.596;2023-06-05T15:53:41;27.80;99.90